Time;durP1;ratioP1;P1;durP2;ratioP2;P2;SDS_P1;SDS_P2;PMS_P1;PMS_P2;Temp;Humidity;BMP_temperature;BMP_pressure;BME280_temperature;BME280_humidity;BME280_pressure;Samples;Min_cycle;Max_cycle;Signal;HPM_P1;HPM_P2
2021/07/11 05:03:08;;;;;;;26.50;24.13;;;;;;;;;;4912632;29;20306;-74
2021/07/11 05:05:53;;;;;;;25.30;22.90;;;;;;;;;;4914551;29;20310;-74
2021/07/11 05:08:38;;;;;;;25.97;23.67;;;;;;;;;;4913658;29;20230;-75
2021/07/11 05:11:24;;;;;;;24.23;22.03;;;;;;;;;;4914493;29;20313;-74
2021/07/11 05:14:08;;;;;;;24.23;21.93;;;;;;;;;;4914708;29;20707;-74
2021/07/11 05:16:53;;;;;;;24.93;22.73;;;;;;;;;;4958279;23;20251;-71
2021/07/11 05:19:39;;;;;;;26.87;24.47;;;;;;;;;;4952703;29;20289;-71
2021/07/11 05:22:24;;;;;;;28.25;25.83;;;;;;;;;;4952288;29;20422;-71
2021/07/11 05:25:09;;;;;;;26.23;23.93;;;;;;;;;;4952318;29;20331;-71
2021/07/11 05:27:54;;;;;;;26.20;23.70;;;;;;;;;;4951713;29;20217;-71
2021/07/11 05:30:39;;;;;;;29.00;26.07;;;;;;;;;;4954381;28;20232;-71
2021/07/11 05:33:24;;;;;;;28.27;25.70;;;;;;;;;;4956240;29;20208;-72
2021/07/11 05:36:12;;;;;;;26.83;24.50;;;;;;;;;;4955762;29;20589;-70
2021/07/11 05:38:57;;;;;;;28.03;25.53;;;;;;;;;;4955667;29;20549;-71
2021/07/11 05:41:42;;;;;;;27.87;25.37;;;;;;;;;;4956444;29;20200;-71
2021/07/11 05:44:27;;;;;;;32.00;29.23;;;;;;;;;;4955346;29;20416;-72
2021/07/11 05:47:12;;;;;;;29.43;26.90;;;;;;;;;;4955047;29;20233;-72
2021/07/11 05:49:57;;;;;;;26.93;24.47;;;;;;;;;;4955824;29;20233;-71
2021/07/11 05:52:44;;;;;;;26.97;24.53;;;;;;;;;;4955507;29;20260;-71
2021/07/11 05:55:29;;;;;;;28.23;25.70;;;;;;;;;;4955605;29;20732;-71
2021/07/11 05:58:14;;;;;;;27.27;25.03;;;;;;;;;;4954877;29;20209;-71
2021/07/11 06:00:59;;;;;;;27.60;25.20;;;;;;;;;;4954498;29;20201;-72
2021/07/11 06:03:44;;;;;;;27.13;24.87;;;;;;;;;;4955640;29;20698;-73
2021/07/11 06:06:29;;;;;;;28.00;25.57;;;;;;;;;;4955310;29;20236;-71
2021/07/11 06:09:15;;;;;;;29.00;26.60;;;;;;;;;;4955431;29;20297;-72
2021/07/11 06:12:00;;;;;;;28.03;25.53;;;;;;;;;;4955720;29;20213;-72
2021/07/11 06:14:45;;;;;;;28.00;25.50;;;;;;;;;;4955727;29;20683;-71
2021/07/11 06:17:32;;;;;;;26.50;24.20;;;;;;;;;;4954382;29;20678;-72
2021/07/11 06:20:17;;;;;;;27.20;25.00;;;;;;;;;;4954998;29;20211;-71
2021/07/11 06:23:02;;;;;;;27.20;24.90;;;;;;;;;;4955184;29;20307;-72
2021/07/11 06:25:49;;;;;;;27.27;24.90;;;;;;;;;;4955156;29;20239;-71
2021/07/11 06:28:34;;;;;;;28.60;26.20;;;;;;;;;;4954471;29;20292;-72
2021/07/11 06:31:19;;;;;;;29.03;26.50;;;;;;;;;;4954785;29;20809;-70
2021/07/11 06:34:03;;;;;;;28.30;25.70;;;;;;;;;;4954981;29;20574;-71
2021/07/11 06:36:48;;;;;;;27.77;25.50;;;;;;;;;;4954016;29;20232;-71
2021/07/11 06:39:33;;;;;;;27.27;24.90;;;;;;;;;;4955007;29;20692;-72
2021/07/11 06:42:19;;;;;;;28.42;26.23;;;;;;;;;;4953812;28;20544;-72
2021/07/11 06:45:05;;;;;;;26.97;24.77;;;;;;;;;;4954495;29;20197;-72
2021/07/11 06:47:50;;;;;;;28.13;25.87;;;;;;;;;;4954095;29;20212;-73
2021/07/11 06:50:36;;;;;;;26.23;24.13;;;;;;;;;;4954307;29;20235;-72
2021/07/11 06:53:21;;;;;;;28.23;26.03;;;;;;;;;;4954399;29;20195;-72
2021/07/11 06:56:07;;;;;;;28.07;25.77;;;;;;;;;;4954419;29;20357;-71
2021/07/11 06:58:53;;;;;;;27.87;25.47;;;;;;;;;;4953855;29;20212;-73
2021/07/11 07:01:38;;;;;;;29.07;26.60;;;;;;;;;;4954410;29;20215;-70
2021/07/11 07:04:23;;;;;;;27.40;25.13;;;;;;;;;;4954390;29;20211;-72
2021/07/11 07:07:08;;;;;;;27.93;25.63;;;;;;;;;;4953502;29;20255;-73
2021/07/11 07:09:53;;;;;;;26.73;24.53;;;;;;;;;;4954167;29;20640;-72
2021/07/11 07:12:38;;;;;;;28.53;26.13;;;;;;;;;;4954317;29;20208;-72
2021/07/11 07:15:25;;;;;;;26.47;24.40;;;;;;;;;;4953820;29;20239;-72
2021/07/11 07:18:10;;;;;;;29.35;27.00;;;;;;;;;;4952588;29;20464;-72
2021/07/11 07:20:54;;;;;;;28.57;26.17;;;;;;;;;;4954386;29;20212;-72
2021/07/11 07:23:39;;;;;;;28.03;25.70;;;;;;;;;;4953977;29;20204;-72
2021/07/11 07:26:24;;;;;;;26.20;23.93;;;;;;;;;;4953551;29;20644;-72
2021/07/11 07:29:09;;;;;;;25.90;23.50;;;;;;;;;;4953917;29;20223;-71
2021/07/11 07:31:56;;;;;;;25.77;23.50;;;;;;;;;;4953824;29;20277;-71
2021/07/11 07:34:41;;;;;;;26.07;23.97;;;;;;;;;;4953719;29;20211;-72
2021/07/11 07:37:26;;;;;;;26.13;24.00;;;;;;;;;;4952959;29;20208;-72
2021/07/11 07:40:11;;;;;;;28.52;26.25;;;;;;;;;;4953702;29;20407;-72
2021/07/11 07:42:56;;;;;;;27.60;25.27;;;;;;;;;;4954590;29;20213;-72
2021/07/11 07:45:42;;;;;;;26.90;24.67;;;;;;;;;;4955853;29;20343;-72
2021/07/11 07:48:28;;;;;;;27.43;25.07;;;;;;;;;;4954211;29;20211;-73
2021/07/11 07:51:13;;;;;;;25.47;23.40;;;;;;;;;;4954693;29;20335;-72
2021/07/11 07:53:58;;;;;;;25.17;23.17;;;;;;;;;;4954704;28;20252;-72
2021/07/11 07:56:43;;;;;;;25.07;23.07;;;;;;;;;;4955062;29;20225;-73
2021/07/11 07:59:28;;;;;;;24.17;22.17;;;;;;;;;;4954007;29;20272;-72
2021/07/11 08:02:13;;;;;;;23.67;21.50;;;;;;;;;;4951893;29;20211;-71
2021/07/11 08:04:59;;;;;;;24.70;22.70;;;;;;;;;;4953322;29;20224;-72
2021/07/11 08:07:45;;;;;;;23.77;21.83;;;;;;;;;;4952703;29;20585;-73
2021/07/11 08:10:30;;;;;;;23.90;21.73;;;;;;;;;;4953072;29;20392;-72
2021/07/11 08:13:15;;;;;;;24.00;22.10;;;;;;;;;;4953176;29;20228;-72
2021/07/11 08:15:59;;;;;;;26.63;24.33;;;;;;;;;;4952858;29;20244;-71
2021/07/11 08:18:44;;;;;;;25.90;23.83;;;;;;;;;;4952246;29;20209;-72
2021/07/11 08:21:30;;;;;;;26.73;24.43;;;;;;;;;;4953096;29;20209;-72
2021/07/11 08:24:16;;;;;;;28.50;26.10;;;;;;;;;;4952983;29;20697;-71
2021/07/11 08:27:00;;;;;;;30.80;28.10;;;;;;;;;;4952200;29;20239;-73
2021/07/11 08:29:50;;;;;;;32.30;29.60;;;;;;;;;;4952960;29;20606;-72
2021/07/11 08:32:35;;;;;;;31.63;28.83;;;;;;;;;;4952752;29;20287;-71
2021/07/11 08:35:20;;;;;;;32.57;29.87;;;;;;;;;;4953091;29;20353;-72
2021/07/11 08:38:07;;;;;;;34.50;31.70;;;;;;;;;;4951544;29;20419;-72
2021/07/11 08:40:52;;;;;;;30.77;28.20;;;;;;;;;;4952659;29;20236;-73
2021/07/11 08:43:38;;;;;;;31.67;29.03;;;;;;;;;;4952746;29;20291;-72
2021/07/11 08:46:23;;;;;;;32.03;29.33;;;;;;;;;;4952907;29;20602;-73
2021/07/11 08:49:08;;;;;;;30.57;28.03;;;;;;;;;;4952311;29;20208;-72
2021/07/11 08:51:57;;;;;;;30.20;27.47;;;;;;;;;;4952690;29;20209;-72
2021/07/11 08:54:43;;;;;;;29.67;27.30;;;;;;;;;;4952340;29;20204;-72
2021/07/11 08:57:28;;;;;;;29.10;26.57;;;;;;;;;;4951649;29;20212;-73
2021/07/11 09:00:13;;;;;;;30.60;27.80;;;;;;;;;;4952559;29;20200;-72
2021/07/11 09:02:59;;;;;;;29.73;27.03;;;;;;;;;;4952384;29;20212;-72
2021/07/11 09:05:44;;;;;;;30.53;27.90;;;;;;;;;;4955139;29;20240;-71
2021/07/11 09:08:29;;;;;;;31.77;29.10;;;;;;;;;;4955635;29;20215;-72
2021/07/11 09:11:16;;;;;;;30.47;27.83;;;;;;;;;;4956237;29;20364;-72
2021/07/11 09:14:01;;;;;;;30.27;27.67;;;;;;;;;;4956337;29;20292;-72
2021/07/11 09:16:46;;;;;;;29.23;26.60;;;;;;;;;;4955476;29;20243;-72
2021/07/11 09:19:32;;;;;;;27.43;24.93;;;;;;;;;;4956307;29;20337;-73
2021/07/11 09:22:17;;;;;;;27.10;24.60;;;;;;;;;;4956208;29;20628;-70
2021/07/11 09:25:04;;;;;;;27.60;25.20;;;;;;;;;;4956111;29;20315;-72
2021/07/11 09:27:50;;;;;;;25.00;22.90;;;;;;;;;;4955219;29;20248;-72
2021/07/11 09:30:35;;;;;;;27.60;25.27;;;;;;;;;;4955772;29;20221;-72
2021/07/11 09:33:20;;;;;;;27.07;24.67;;;;;;;;;;4956014;29;20230;-71
2021/07/11 09:36:06;;;;;;;30.10;27.60;;;;;;;;;;4955172;29;20887;-72
2021/07/11 09:38:52;;;;;;;26.57;24.27;;;;;;;;;;4955276;29;20287;-73
2021/07/11 09:41:37;;;;;;;26.80;24.50;;;;;;;;;;4955973;29;20579;-71
2021/07/11 09:44:24;;;;;;;25.20;23.03;;;;;;;;;;4955920;29;20259;-71
2021/07/11 09:47:16;;;;;;;23.13;21.13;;;;;;;;;;4954982;29;20348;-71
2021/07/11 09:50:08;;;;;;;20.43;18.73;;;;;;;;;;4955379;29;20370;-72
2021/07/11 09:52:54;;;;;;;19.03;17.53;;;;;;;;;;4955575;29;20205;-72
2021/07/11 09:55:39;;;;;;;18.23;16.73;;;;;;;;;;4955547;29;20732;-73
2021/07/11 09:58:24;;;;;;;19.10;17.40;;;;;;;;;;4954924;29;20328;-72
2021/07/11 10:01:12;;;;;;;28.13;25.63;;;;;;;;;;4955368;29;20697;-72
2021/07/11 10:03:58;;;;;;;29.63;27.03;;;;;;;;;;4955676;29;20232;-72
2021/07/11 10:06:43;;;;;;;29.93;27.43;;;;;;;;;;4954443;29;20304;-72
2021/07/11 10:09:27;;;;;;;28.10;25.53;;;;;;;;;;4955098;29;20692;-71
2021/07/11 10:12:12;;;;;;;28.27;25.80;;;;;;;;;;4955178;29;20680;-72
2021/07/11 10:14:57;;;;;;;27.10;24.73;;;;;;;;;;4955046;28;20526;-71
2021/07/11 10:17:45;;;;;;;27.37;24.97;;;;;;;;;;4954494;29;20508;-72
2021/07/11 10:20:31;;;;;;;26.00;23.80;;;;;;;;;;4955383;29;20208;-72
2021/07/11 10:23:25;;;;;;;24.20;22.20;;;;;;;;;;4955075;29;20716;-72
2021/07/11 10:26:12;;;;;;;21.77;19.97;;;;;;;;;;4955009;29;20228;-71
2021/07/11 10:28:58;;;;;;;20.70;19.00;;;;;;;;;;4954597;29;20203;-72
2021/07/11 10:31:44;;;;;;;23.23;21.33;;;;;;;;;;4954674;29;20352;-73
2021/07/11 10:34:34;;;;;;;26.63;24.23;;;;;;;;;;4954888;29;20320;-71
2021/07/11 10:37:22;;;;;;;23.10;21.10;;;;;;;;;;4954585;29;20204;-72
2021/07/11 10:40:08;;;;;;;24.33;22.13;;;;;;;;;;4954546;29;20348;-71
2021/07/11 10:42:53;;;;;;;20.50;18.73;;;;;;;;;;4954768;29;20236;-72
2021/07/11 10:45:44;;;;;;;20.67;18.97;;;;;;;;;;4954770;29;20707;-72
2021/07/11 10:48:30;;;;;;;18.90;17.37;;;;;;;;;;4953959;29;20713;-72
2021/07/11 10:51:20;;;;;;;18.50;16.93;;;;;;;;;;4954438;29;20232;-72
2021/07/11 10:54:05;;;;;;;17.00;15.70;;;;;;;;;;4954586;29;20219;-72
2021/07/11 10:56:50;;;;;;;18.10;16.47;;;;;;;;;;4953969;29;20611;-71
2021/07/11 10:59:36;;;;;;;18.73;17.23;;;;;;;;;;4954562;29;20692;-72
2021/07/11 11:02:22;;;;;;;17.70;16.20;;;;;;;;;;4954308;29;20665;-72
2021/07/11 11:05:11;;;;;;;14.67;13.47;;;;;;;;;;4954558;29;20211;-71
2021/07/11 11:08:08;;;;;;;19.57;18.07;;;;;;;;;;4953430;29;20216;-72
2021/07/11 11:10:54;;;;;;;17.57;16.17;;;;;;;;;;4954071;29;20223;-71
2021/07/11 11:13:39;;;;;;;15.70;14.50;;;;;;;;;;4954079;29;20208;-71
2021/07/11 11:16:24;;;;;;;12.00;11.10;;;;;;;;;;4967275;23;20637;-75
2021/07/11 11:19:13;;;;;;;13.03;12.00;;;;;;;;;;4953727;29;20213;-75
2021/07/11 11:21:59;;;;;;;13.40;12.40;;;;;;;;;;4953655;29;20288;-75
2021/07/11 11:24:46;;;;;;;14.37;13.17;;;;;;;;;;4953917;29;20271;-74
2021/07/11 11:27:35;;;;;;;15.37;14.07;;;;;;;;;;4952255;28;20228;-74
2021/07/11 11:30:22;;;;;;;16.00;14.80;;;;;;;;;;4952643;29;20429;-75
2021/07/11 11:33:07;;;;;;;15.60;14.40;;;;;;;;;;4953651;29;20212;-74
2021/07/11 11:35:52;;;;;;;18.23;16.73;;;;;;;;;;4953383;29;20303;-73
2021/07/11 11:38:41;;;;;;;17.33;15.93;;;;;;;;;;4952602;29;20272;-74
2021/07/11 11:41:27;;;;;;;15.57;14.27;;;;;;;;;;4953385;29;20594;-74
2021/07/11 11:44:13;;;;;;;17.40;16.00;;;;;;;;;;4953420;29;20567;-74
2021/07/11 11:46:59;;;;;;;16.70;15.27;;;;;;;;;;4952359;29;20606;-74
2021/07/11 11:49:44;;;;;;;18.30;16.77;;;;;;;;;;4953107;29;20212;-74
2021/07/11 11:52:29;;;;;;;19.13;17.53;;;;;;;;;;4952693;29;20368;-75
2021/07/11 11:55:14;;;;;;;19.13;17.57;;;;;;;;;;4952966;29;20333;-74
2021/07/11 11:58:02;;;;;;;20.47;18.87;;;;;;;;;;4952378;29;20604;-74
2021/07/11 12:00:47;;;;;;;19.23;17.63;;;;;;;;;;4952857;29;20205;-74
2021/07/11 12:03:35;;;;;;;20.10;18.50;;;;;;;;;;4952827;29;20211;-74
2021/07/11 12:06:23;;;;;;;22.58;20.83;;;;;;;;;;4951903;29;20429;-74
2021/07/11 12:09:09;;;;;;;18.90;17.50;;;;;;;;;;4952890;29;20576;-74
2021/07/11 12:11:57;;;;;;;19.80;18.30;;;;;;;;;;4952592;29;20286;-74
2021/07/11 12:14:44;;;;;;;18.43;16.80;;;;;;;;;;4952489;29;20217;-74
2021/07/11 12:17:33;;;;;;;18.97;17.47;;;;;;;;;;4951852;29;20235;-73
2021/07/11 12:20:20;;;;;;;16.60;15.23;;;;;;;;;;4952642;29;20334;-74
2021/07/11 12:23:09;;;;;;;17.13;15.70;;;;;;;;;;4952614;29;20693;-72
2021/07/11 12:25:58;;;;;;;15.57;14.27;;;;;;;;;;4952567;29;20228;-74
2021/07/11 12:28:50;;;;;;;15.37;14.17;;;;;;;;;;4951690;29;20211;-74
2021/07/11 12:31:37;;;;;;;14.83;13.70;;;;;;;;;;4952354;29;20792;-73
2021/07/11 12:34:22;;;;;;;13.63;12.60;;;;;;;;;;4952483;29;20209;-74
2021/07/11 12:37:08;;;;;;;16.10;14.90;;;;;;;;;;4951351;29;20227;-73
2021/07/11 12:39:53;;;;;;;16.03;14.83;;;;;;;;;;4952507;28;20739;-73
2021/07/11 12:42:38;;;;;;;13.90;12.80;;;;;;;;;;4952677;29;20201;-73
2021/07/11 12:45:23;;;;;;;15.67;14.47;;;;;;;;;;4952537;29;20634;-74
2021/07/11 12:48:10;;;;;;;13.27;12.17;;;;;;;;;;4951656;29;20632;-74
2021/07/11 12:50:55;;;;;;;11.00;10.03;;;;;;;;;;4952345;29;20224;-74
2021/07/11 12:53:40;;;;;;;11.17;10.37;;;;;;;;;;4952428;29;20577;-74
2021/07/11 12:56:26;;;;;;;13.57;12.37;;;;;;;;;;4952321;29;20229;-74
2021/07/11 12:59:11;;;;;;;14.57;13.37;;;;;;;;;;4952626;29;20299;-74
2021/07/11 13:02:00;;;;;;;14.17;12.97;;;;;;;;;;4952339;29;20252;-74
2021/07/11 13:04:54;;;;;;;13.30;12.33;;;;;;;;;;4952211;29;20212;-74
2021/07/11 13:07:39;;;;;;;12.67;11.67;;;;;;;;;;4951639;29;20732;-74
2021/07/11 13:10:24;;;;;;;11.97;10.97;;;;;;;;;;4952322;29;20241;-74
2021/07/11 13:13:09;;;;;;;12.93;11.93;;;;;;;;;;4952226;29;20204;-74
2021/07/11 13:15:55;;;;;;;14.50;13.40;;;;;;;;;;4952270;29;20236;-73
2021/07/11 13:18:40;;;;;;;13.70;12.47;;;;;;;;;;4951610;29;20265;-74
2021/07/11 13:21:26;;;;;;;14.27;13.20;;;;;;;;;;4952210;29;20217;-73
2021/07/11 13:24:11;;;;;;;13.27;12.27;;;;;;;;;;4952372;29;20216;-73
2021/07/11 13:26:56;;;;;;;14.10;13.00;;;;;;;;;;4950320;29;20411;-74
2021/07/11 13:29:41;;;;;;;12.70;11.70;;;;;;;;;;4952332;29;20216;-74
2021/07/11 13:32:26;;;;;;;13.13;12.23;;;;;;;;;;4951924;29;20732;-74
2021/07/11 13:35:11;;;;;;;14.40;13.30;;;;;;;;;;4951947;29;20205;-73
2021/07/11 13:37:57;;;;;;;13.90;12.80;;;;;;;;;;4951463;29;20221;-74
2021/07/11 13:40:43;;;;;;;13.57;12.57;;;;;;;;;;4952046;29;20321;-73
2021/07/11 13:43:29;;;;;;;13.70;12.53;;;;;;;;;;4952006;29;20438;-74
2021/07/11 13:46:14;;;;;;;13.67;12.57;;;;;;;;;;4951806;29;20768;-74
2021/07/11 13:48:59;;;;;;;15.87;14.50;;;;;;;;;;4951666;29;20240;-73
2021/07/11 13:51:44;;;;;;;14.57;13.37;;;;;;;;;;4954511;28;20591;-74
2021/07/11 13:54:31;;;;;;;14.00;12.80;;;;;;;;;;4955547;29;20773;-74
2021/07/11 13:57:16;;;;;;;12.73;11.70;;;;;;;;;;4954978;29;20229;-74
2021/07/11 14:00:01;;;;;;;14.30;13.20;;;;;;;;;;4955335;29;20200;-74
2021/07/11 14:02:46;;;;;;;15.50;14.30;;;;;;;;;;4954171;29;20225;-74
2021/07/11 14:05:31;;;;;;;14.10;12.93;;;;;;;;;;4955052;29;20209;-74
2021/07/11 14:08:16;;;;;;;12.40;11.40;;;;;;;;;;4954486;29;20321;-74
2021/07/11 14:11:02;;;;;;;11.13;10.30;;;;;;;;;;4955156;29;20669;-74
2021/07/11 14:13:47;;;;;;;12.03;11.13;;;;;;;;;;4955168;29;20213;-74
2021/07/11 14:16:32;;;;;;;10.27;9.47;;;;;;;;;;4954620;29;20691;-73
2021/07/11 14:19:17;;;;;;;8.57;8.03;;;;;;;;;;4955053;29;20213;-74
2021/07/11 14:22:02;;;;;;;8.77;8.07;;;;;;;;;;4955032;29;20579;-73
2021/07/11 14:24:47;;;;;;;10.20;9.40;;;;;;;;;;4953848;29;20565;-74
2021/07/11 14:27:33;;;;;;;8.47;7.77;;;;;;;;;;4954129;29;20232;-73
2021/07/11 14:30:19;;;;;;;7.90;7.30;;;;;;;;;;4954936;29;20209;-74
2021/07/11 14:33:05;;;;;;;7.90;7.20;;;;;;;;;;4954623;29;20280;-73
2021/07/11 14:35:50;;;;;;;7.73;7.23;;;;;;;;;;4954639;29;20219;-73
2021/07/11 14:38:35;;;;;;;8.10;7.60;;;;;;;;;;4953987;29;20260;-73
2021/07/11 14:41:20;;;;;;;8.37;7.77;;;;;;;;;;4954551;29;20204;-73
2021/07/11 14:44:09;;;;;;;7.53;7.03;;;;;;;;;;4954570;29;20215;-74
2021/07/11 14:46:54;;;;;;;7.83;7.20;;;;;;;;;;4953927;29;20255;-74
2021/07/11 14:49:40;;;;;;;8.07;7.40;;;;;;;;;;4954577;29;20216;-73
2021/07/11 14:52:25;;;;;;;7.90;7.10;;;;;;;;;;4954125;29;20220;-74
2021/07/11 14:55:10;;;;;;;7.93;7.23;;;;;;;;;;4954526;29;20261;-73
2021/07/11 14:57:56;;;;;;;7.73;7.23;;;;;;;;;;4953616;29;20220;-74
2021/07/11 15:00:42;;;;;;;7.73;7.13;;;;;;;;;;4953229;29;20341;-73
2021/07/11 15:03:27;;;;;;;7.77;7.07;;;;;;;;;;4953148;28;20204;-73
2021/07/11 15:06:12;;;;;;;7.10;6.70;;;;;;;;;;4953906;29;20315;-74
2021/07/11 15:08:57;;;;;;;6.40;6.00;;;;;;;;;;4953599;29;20209;-73
2021/07/11 15:11:41;;;;;;;7.00;6.50;;;;;;;;;;4954107;29;20303;-74
2021/07/11 15:14:26;;;;;;;5.83;5.53;;;;;;;;;;4954012;29;20213;-73
2021/07/11 15:17:13;;;;;;;6.23;5.77;;;;;;;;;;4952925;29;20231;-73
2021/07/11 15:19:58;;;;;;;6.57;5.90;;;;;;;;;;4954016;29;20212;-74
2021/07/11 15:22:43;;;;;;;7.20;6.68;;;;;;;;;;4952585;29;20544;-73
2021/07/11 15:25:28;;;;;;;7.43;6.83;;;;;;;;;;4954361;29;20216;-73
2021/07/11 15:28:14;;;;;;;8.67;7.93;;;;;;;;;;4953191;29;20217;-74
2021/07/11 15:30:59;;;;;;;7.70;7.00;;;;;;;;;;4953807;29;20301;-74
2021/07/11 15:33:45;;;;;;;7.70;7.10;;;;;;;;;;4953491;29;20228;-74
2021/07/11 15:36:30;;;;;;;9.10;8.40;;;;;;;;;;4953638;29;20606;-74
2021/07/11 15:39:15;;;;;;;8.47;7.77;;;;;;;;;;4953611;29;20211;-73
2021/07/11 15:42:00;;;;;;;7.30;6.67;;;;;;;;;;4953295;29;20212;-74
2021/07/11 15:44:45;;;;;;;7.53;6.73;;;;;;;;;;4953702;29;20480;-74
2021/07/11 15:47:30;;;;;;;7.80;7.10;;;;;;;;;;4952779;29;20728;-74
2021/07/11 15:50:16;;;;;;;7.40;6.90;;;;;;;;;;4953449;29;20231;-74
2021/07/11 15:53:01;;;;;;;9.27;8.47;;;;;;;;;;4953139;29;20315;-74
2021/07/11 15:55:47;;;;;;;9.13;8.32;;;;;;;;;;4953306;29;20838;-73
2021/07/11 15:58:32;;;;;;;8.03;7.43;;;;;;;;;;4952918;29;20212;-73
2021/07/11 16:01:17;;;;;;;8.07;7.47;;;;;;;;;;4953270;29;20681;-74
2021/07/11 16:04:02;;;;;;;9.10;8.50;;;;;;;;;;4953164;29;20220;-73
2021/07/11 16:06:49;;;;;;;8.77;7.90;;;;;;;;;;4952090;29;20268;-74
2021/07/11 16:09:34;;;;;;;8.90;8.30;;;;;;;;;;4953033;29;20208;-73
2021/07/11 16:12:19;;;;;;;9.93;9.13;;;;;;;;;;4953200;29;20304;-74
2021/07/11 16:15:05;;;;;;;10.43;9.73;;;;;;;;;;4952688;28;20256;-73
2021/07/11 16:17:49;;;;;;;11.13;10.37;;;;;;;;;;4952031;29;20414;-74
2021/07/11 16:20:34;;;;;;;11.30;10.50;;;;;;;;;;4952852;29;20212;-73
2021/07/11 16:23:21;;;;;;;11.43;10.33;;;;;;;;;;4952979;29;20230;-74
2021/07/11 16:26:06;;;;;;;11.07;10.27;;;;;;;;;;4952840;29;20600;-74
2021/07/11 16:28:51;;;;;;;11.23;10.30;;;;;;;;;;4951903;29;20581;-73
2021/07/11 16:31:36;;;;;;;11.30;10.50;;;;;;;;;;4952833;29;20807;-73
2021/07/11 16:34:22;;;;;;;11.43;10.33;;;;;;;;;;4952827;29;20208;-74
2021/07/11 16:37:07;;;;;;;11.73;10.83;;;;;;;;;;4951964;29;20239;-74
2021/07/11 16:39:53;;;;;;;11.17;10.27;;;;;;;;;;4952845;29;20210;-73
2021/07/11 16:42:39;;;;;;;11.80;10.80;;;;;;;;;;4952561;29;20698;-74
2021/07/11 16:45:24;;;;;;;11.43;10.53;;;;;;;;;;4952677;29;20204;-74
2021/07/11 16:48:09;;;;;;;10.20;9.40;;;;;;;;;;4951990;29;20211;-73
2021/07/11 16:50:54;;;;;;;9.30;8.60;;;;;;;;;;4952343;29;20328;-74
2021/07/11 16:53:41;;;;;;;7.50;6.75;;;;;;;;;;4951993;29;20516;-73
2021/07/11 16:56:27;;;;;;;7.17;6.57;;;;;;;;;;4952425;29;20239;-74
2021/07/11 16:59:12;;;;;;;6.63;6.23;;;;;;;;;;4952328;29;20208;-74
2021/07/11 17:01:57;;;;;;;7.20;6.60;;;;;;;;;;4951224;29;20619;-73
2021/07/11 17:04:42;;;;;;;7.10;6.50;;;;;;;;;;4952456;29;20204;-73
2021/07/11 17:07:27;;;;;;;6.60;6.10;;;;;;;;;;4951745;29;20255;-74
2021/07/11 17:10:13;;;;;;;6.53;5.93;;;;;;;;;;4952473;29;20228;-73
2021/07/11 17:13:00;;;;;;;6.33;5.93;;;;;;;;;;4952188;29;20231;-74
2021/07/11 17:15:45;;;;;;;6.18;5.78;;;;;;;;;;4952107;29;20395;-73
2021/07/11 17:18:30;;;;;;;6.50;5.90;;;;;;;;;;4980870;23;20247;-73
2021/07/11 17:21:15;;;;;;;6.30;5.90;;;;;;;;;;4971518;28;20218;-73
2021/07/11 17:24:00;;;;;;;5.97;5.57;;;;;;;;;;4971383;28;20204;-72
2021/07/11 17:26:45;;;;;;;6.17;5.63;;;;;;;;;;4973641;28;20782;-73
2021/07/11 17:29:31;;;;;;;6.67;6.17;;;;;;;;;;4975383;28;20215;-73
2021/07/11 17:32:16;;;;;;;6.40;5.90;;;;;;;;;;4975267;28;20275;-73
2021/07/11 17:35:02;;;;;;;5.47;5.17;;;;;;;;;;4975103;28;20215;-72
2021/07/11 17:37:46;;;;;;;6.40;5.90;;;;;;;;;;4975229;28;20231;-73
2021/07/11 17:40:32;;;;;;;6.00;5.50;;;;;;;;;;4975297;28;20287;-74
2021/07/11 17:43:17;;;;;;;5.10;4.80;;;;;;;;;;4975050;28;20263;-73
2021/07/11 17:46:03;;;;;;;7.03;4.87;;;;;;;;;;4974866;28;20720;-72
2021/07/11 17:48:48;;;;;;;5.40;4.87;;;;;;;;;;4974334;28;20697;-73
2021/07/11 17:51:33;;;;;;;4.80;4.50;;;;;;;;;;4974383;28;20502;-73
2021/07/11 17:54:19;;;;;;;4.40;4.10;;;;;;;;;;4974716;28;20238;-73
2021/07/11 17:57:04;;;;;;;4.73;4.40;;;;;;;;;;4973859;28;20749;-72
2021/07/11 17:59:49;;;;;;;5.40;4.97;;;;;;;;;;4975285;28;20259;-73
2021/07/11 18:02:36;;;;;;;6.13;5.63;;;;;;;;;;4973622;28;20214;-72
2021/07/11 18:05:21;;;;;;;5.10;4.70;;;;;;;;;;4972990;28;20252;-73
2021/07/11 18:08:06;;;;;;;5.60;5.20;;;;;;;;;;4954215;28;20319;-73
2021/07/11 18:10:51;;;;;;;5.20;4.90;;;;;;;;;;4966495;28;20287;-72
2021/07/11 18:13:37;;;;;;;5.47;5.07;;;;;;;;;;4974241;28;20521;-73
2021/07/11 18:16:22;;;;;;;4.93;4.63;;;;;;;;;;4955308;29;20215;-74
2021/07/11 18:19:08;;;;;;;5.03;4.63;;;;;;;;;;4958093;28;20215;-71
2021/07/11 18:21:53;;;;;;;4.60;4.23;;;;;;;;;;4959166;28;20217;-73
2021/07/11 18:24:38;;;;;;;4.53;4.13;;;;;;;;;;4965558;28;20589;-71
2021/07/11 18:27:24;;;;;;;4.87;4.57;;;;;;;;;;4956170;28;20328;-73
2021/07/11 18:30:10;;;;;;;4.70;4.30;;;;;;;;;;4966057;28;20255;-72
2021/07/11 18:32:54;;;;;;;4.20;4.00;;;;;;;;;;4955628;28;20223;-70
2021/07/11 18:35:41;;;;;;;4.83;4.53;;;;;;;;;;4960694;28;20216;-72
2021/07/11 18:38:27;;;;;;;4.70;4.40;;;;;;;;;;4965835;28;20228;-73
2021/07/11 18:41:12;;;;;;;5.13;4.80;;;;;;;;;;4954631;28;20229;-74
2021/07/11 18:43:57;;;;;;;4.93;4.53;;;;;;;;;;4959972;28;20267;-72
2021/07/11 18:46:42;;;;;;;4.10;3.90;;;;;;;;;;4959571;28;20305;-73
2021/07/11 18:49:27;;;;;;;4.80;4.47;;;;;;;;;;4964659;28;20608;-70
2021/07/11 18:52:13;;;;;;;4.60;4.30;;;;;;;;;;4972704;28;20674;-72
2021/07/11 18:54:58;;;;;;;4.87;4.47;;;;;;;;;;4964802;28;20357;-72
2021/07/11 18:57:43;;;;;;;4.50;4.20;;;;;;;;;;4956864;28;20326;-73
2021/07/11 19:00:28;;;;;;;4.87;4.50;;;;;;;;;;4963997;28;20208;-73
2021/07/11 19:03:13;;;;;;;5.00;4.70;;;;;;;;;;4960432;28;20212;-72
2021/07/11 19:05:57;;;;;;;4.80;4.50;;;;;;;;;;4954183;28;20292;-73
2021/07/11 19:08:44;;;;;;;4.67;4.37;;;;;;;;;;4962828;28;20366;-73
2021/07/11 19:11:29;;;;;;;5.28;4.88;;;;;;;;;;4969666;28;20403;-72
2021/07/11 19:14:13;;;;;;;4.90;4.50;;;;;;;;;;4969148;28;20359;-72
2021/07/11 19:16:59;;;;;;;5.20;4.80;;;;;;;;;;4952458;28;20252;-73
2021/07/11 19:19:46;;;;;;;5.30;4.90;;;;;;;;;;4965379;28;20260;-73
2021/07/11 19:22:30;;;;;;;5.77;5.27;;;;;;;;;;4962448;28;20348;-72
2021/07/11 19:25:17;;;;;;;5.43;5.03;;;;;;;;;;4971074;28;20206;-73
2021/07/11 19:28:03;;;;;;;5.77;5.37;;;;;;;;;;4970464;28;20300;-72
2021/07/11 19:30:48;;;;;;;5.90;5.50;;;;;;;;;;4953453;28;20217;-70
2021/07/11 19:33:33;;;;;;;5.70;5.30;;;;;;;;;;4953313;28;20218;-72
2021/07/11 19:36:18;;;;;;;5.67;5.30;;;;;;;;;;4953858;28;20214;-72
2021/07/11 19:39:03;;;;;;;5.50;5.10;;;;;;;;;;4953264;28;20217;-72
2021/07/11 19:41:50;;;;;;;5.50;4.97;;;;;;;;;;4972242;28;20225;-71
2021/07/11 19:44:38;;;;;;;5.90;5.23;;;;;;;;;;4959460;28;20212;-74
2021/07/11 19:47:23;;;;;;;5.20;4.90;;;;;;;;;;4952323;28;20233;-72
2021/07/11 19:50:08;;;;;;;5.17;4.77;;;;;;;;;;4952666;28;20334;-72
2021/07/11 19:52:53;;;;;;;5.37;5.07;;;;;;;;;;4953280;28;20218;-72
2021/07/11 19:55:39;;;;;;;5.40;5.10;;;;;;;;;;4956977;28;20865;-72
2021/07/11 19:58:25;;;;;;;5.43;5.13;;;;;;;;;;4962892;28;20237;-71
2021/07/11 20:39:00;;;;;;;5.73;5.33;;;;;;;;;;4950010;23;20317;-72
2021/07/11 20:41:45;;;;;;;6.10;5.67;;;;;;;;;;4933416;29;20217;-71
2021/07/11 20:44:29;;;;;;;6.47;5.97;;;;;;;;;;4930586;29;20208;-70
2021/07/11 20:47:15;;;;;;;5.83;5.43;;;;;;;;;;4933213;29;20232;-71
2021/07/11 20:50:01;;;;;;;6.77;6.17;;;;;;;;;;4937510;29;20229;-71
2021/07/11 20:52:46;;;;;;;6.50;6.10;;;;;;;;;;4939942;29;20213;-71
2021/07/11 20:55:35;;;;;;;6.67;6.27;;;;;;;;;;4918700;29;20221;-70
2021/07/11 20:58:24;;;;;;;5.63;5.23;;;;;;;;;;4913612;29;20249;-71
2021/07/11 21:01:09;;;;;;;6.40;5.90;;;;;;;;;;4941996;23;20236;-70
2021/07/11 21:03:54;;;;;;;6.93;6.32;;;;;;;;;;4949434;29;20578;-72
2021/07/11 21:06:45;;;;;;;6.87;6.47;;;;;;;;;;4936631;29;20276;-72
2021/07/11 21:09:31;;;;;;;7.63;7.13;;;;;;;;;;4946655;29;20208;-73
2021/07/11 21:12:17;;;;;;;7.23;6.53;;;;;;;;;;4938010;29;20229;-71
2021/07/11 21:15:02;;;;;;;7.27;6.70;;;;;;;;;;4935839;29;20312;-72
2021/07/11 21:17:47;;;;;;;7.73;7.03;;;;;;;;;;4936362;29;20228;-72
2021/07/11 21:20:32;;;;;;;8.33;7.63;;;;;;;;;;4936562;29;20342;-72
2021/07/11 21:23:17;;;;;;;8.17;7.57;;;;;;;;;;4934843;29;20215;-73
2021/07/11 21:26:01;;;;;;;8.33;7.63;;;;;;;;;;4924213;29;20212;-73
2021/07/11 21:28:48;;;;;;;9.70;8.97;;;;;;;;;;4916466;29;20758;-71
2021/07/11 21:31:33;;;;;;;9.80;9.10;;;;;;;;;;4917708;29;20245;-72
2021/07/11 21:34:18;;;;;;;9.53;8.73;;;;;;;;;;4917231;29;20234;-72
2021/07/11 21:37:03;;;;;;;10.57;9.77;;;;;;;;;;4916361;29;20216;-72
2021/07/11 21:39:48;;;;;;;12.00;11.00;;;;;;;;;;4917123;29;20256;-72
2021/07/11 21:42:33;;;;;;;11.90;11.00;;;;;;;;;;4934146;29;20239;-71
2021/07/11 21:45:20;;;;;;;10.60;9.80;;;;;;;;;;4935145;29;20236;-72
2021/07/11 21:48:05;;;;;;;11.57;10.67;;;;;;;;;;4933765;29;20268;-72
2021/07/11 21:50:51;;;;;;;12.53;11.60;;;;;;;;;;4935161;29;20617;-71
2021/07/11 21:53:36;;;;;;;12.53;11.63;;;;;;;;;;4934539;29;20316;-72